East Point, Canada
Current Conditions -  °F | °C
As of 1:00 PM on Saturday 20 Dec 2014 (Local Time) from CYYG Reporting Station
Overcast Overcast  
Wind Chill: 22°   Ceiling: 2900
Heat Index: 32°   Visibility: 15mi
Dew Point: 25°   Wind: 15mph
Humidity: 75%   Direction: 20°NNE
Pressure: 30.24"   Gusts: NA
Location:  46.45°N, 61.97°W
Report Text: CYYG 201700Z 02013KT 15SM FEW020 OVC029 M00/M04 A3024 RMK SC1SC7 SLP244
Loading
Personal Weather Stations






























Interactive Weather Map New forecast layout! Learn more

10-Day Weather Forecast

Advertisements
Track Severe Weather on mobile